sensor_id;sensor_type;location;lat;lon;timestamp;temperature;humidity
14016;DHT22;7083;48.854;9.158;2024-01-30T00:01:37;0.30;99.90
14016;DHT22;7083;48.854;9.158;2024-01-30T00:04:04;0.30;99.90
14016;DHT22;7083;48.854;9.158;2024-01-30T00:06:30;0.30;99.90
14016;DHT22;7083;48.854;9.158;2024-01-30T00:08:59;0.30;99.90
14016;DHT22;7083;48.854;9.158;2024-01-30T00:11:26;0.30;99.90
14016;DHT22;7083;48.854;9.158;2024-01-30T00:13:54;0.20;99.90
14016;DHT22;7083;48.854;9.158;2024-01-30T00:16:22;0.20;99.90
14016;DHT22;7083;48.854;9.158;2024-01-30T00:18:49;0.10;99.90
14016;DHT22;7083;48.854;9.158;2024-01-30T00:21:16;0.10;99.90
14016;DHT22;7083;48.854;9.158;2024-01-30T00:23:43;0.10;99.90
14016;DHT22;7083;48.854;9.158;2024-01-30T00:26:11;0.10;99.90
14016;DHT22;7083;48.854;9.158;2024-01-30T00:28:38;0.10;99.90
14016;DHT22;7083;48.854;9.158;2024-01-30T00:31:05;0.10;99.90
14016;DHT22;7083;48.854;9.158;2024-01-30T00:33:31;0.10;99.90
14016;DHT22;7083;48.854;9.158;2024-01-30T00:35:58;0.10;99.90
14016;DHT22;7083;48.854;9.158;2024-01-30T00:38:25;0.10;99.90
14016;DHT22;7083;48.854;9.158;2024-01-30T00:40:51;0.10;99.90
14016;DHT22;7083;48.854;9.158;2024-01-30T00:43:19;0.00;99.90
14016;DHT22;7083;48.854;9.158;2024-01-30T00:45:46;0.00;99.90
14016;DHT22;7083;48.854;9.158;2024-01-30T00:48:13;0.00;99.90
14016;DHT22;7083;48.854;9.158;2024-01-30T00:50:40;0.00;99.90
14016;DHT22;7083;48.854;9.158;2024-01-30T00:53:06;0.00;99.90
14016;DHT22;7083;48.854;9.158;2024-01-30T00:55:33;0.00;99.90
14016;DHT22;7083;48.854;9.158;2024-01-30T00:58:00;0.00;99.90
14016;DHT22;7083;48.854;9.158;2024-01-30T01:00:28;0.00;99.90
14016;DHT22;7083;48.854;9.158;2024-01-30T01:02:55;-0.10;99.90
14016;DHT22;7083;48.854;9.158;2024-01-30T01:05:22;-0.10;99.90
14016;DHT22;7083;48.854;9.158;2024-01-30T01:07:48;0.00;99.90
14016;DHT22;7083;48.854;9.158;2024-01-30T01:10:15;-0.10;99.90
14016;DHT22;7083;48.854;9.158;2024-01-30T01:12:42;0.00;99.90
14016;DHT22;7083;48.854;9.158;2024-01-30T01:15:09;-0.10;99.90
14016;DHT22;7083;48.854;9.158;2024-01-30T01:17:38;-0.10;99.90
14016;DHT22;7083;48.854;9.158;2024-01-30T01:20:06;-0.10;99.90
14016;DHT22;7083;48.854;9.158;2024-01-30T01:22:34;-0.10;99.90
14016;DHT22;7083;48.854;9.158;2024-01-30T01:25:01;-0.10;99.90
14016;DHT22;7083;48.854;9.158;2024-01-30T01:27:28;-0.10;99.90
14016;DHT22;7083;48.854;9.158;2024-01-30T01:29:54;-0.10;99.90
14016;DHT22;7083;48.854;9.158;2024-01-30T01:32:21;-0.10;99.90
14016;DHT22;7083;48.854;9.158;2024-01-30T01:34:49;-0.30;99.90
14016;DHT22;7083;48.854;9.158;2024-01-30T01:37:16;-0.20;99.90
14016;DHT22;7083;48.854;9.158;2024-01-30T01:39:42;-0.20;99.90
14016;DHT22;7083;48.854;9.158;2024-01-30T01:42:09;-0.20;99.90
14016;DHT22;7083;48.854;9.158;2024-01-30T01:44:36;-0.20;99.90
14016;DHT22;7083;48.854;9.158;2024-01-30T01:47:03;-0.20;99.90
14016;DHT22;7083;48.854;9.158;2024-01-30T01:49:30;-0.20;99.90
14016;DHT22;7083;48.854;9.158;2024-01-30T01:51:58;-0.30;99.90
14016;DHT22;7083;48.854;9.158;2024-01-30T01:54:25;-0.30;99.90
14016;DHT22;7083;48.854;9.158;2024-01-30T01:56:53;-0.30;99.90
14016;DHT22;7083;48.854;9.158;2024-01-30T01:59:20;-0.40;99.90
14016;DHT22;7083;48.854;9.158;2024-01-30T02:01:46;-0.40;99.90
14016;DHT22;7083;48.854;9.158;2024-01-30T02:04:14;-0.40;99.90
14016;DHT22;7083;48.854;9.158;2024-01-30T02:06:41;-0.50;99.90
14016;DHT22;7083;48.854;9.158;2024-01-30T02:09:10;-0.50;99.90
14016;DHT22;7083;48.854;9.158;2024-01-30T02:11:37;-0.50;99.90
14016;DHT22;7083;48.854;9.158;2024-01-30T02:14:04;-0.50;99.90
14016;DHT22;7083;48.854;9.158;2024-01-30T02:16:31;-0.60;99.90
14016;DHT22;7083;48.854;9.158;2024-01-30T02:18:58;-0.60;99.90
14016;DHT22;7083;48.854;9.158;2024-01-30T02:21:26;-0.60;99.90
14016;DHT22;7083;48.854;9.158;2024-01-30T02:23:54;-0.60;99.90
14016;DHT22;7083;48.854;9.158;2024-01-30T02:26:21;-0.70;99.90
14016;DHT22;7083;48.854;9.158;2024-01-30T02:28:48;-0.70;99.90
14016;DHT22;7083;48.854;9.158;2024-01-30T02:31:15;-0.70;99.90
14016;DHT22;7083;48.854;9.158;2024-01-30T02:33:41;-0.70;99.90
14016;DHT22;7083;48.854;9.158;2024-01-30T02:36:08;-0.70;99.90
14016;DHT22;7083;48.854;9.158;2024-01-30T02:38:36;-0.70;99.90
14016;DHT22;7083;48.854;9.158;2024-01-30T02:41:03;-0.70;99.90
14016;DHT22;7083;48.854;9.158;2024-01-30T02:43:30;-0.70;99.90
14016;DHT22;7083;48.854;9.158;2024-01-30T02:45:56;-0.70;99.90
14016;DHT22;7083;48.854;9.158;2024-01-30T02:48:23;-0.80;99.90
14016;DHT22;7083;48.854;9.158;2024-01-30T02:50:50;-0.80;99.90
14016;DHT22;7083;48.854;9.158;2024-01-30T02:53:17;-0.80;99.90
14016;DHT22;7083;48.854;9.158;2024-01-30T02:55:45;-0.80;99.90
14016;DHT22;7083;48.854;9.158;2024-01-30T02:58:11;-0.80;99.90
14016;DHT22;7083;48.854;9.158;2024-01-30T03:00:38;-0.80;99.90
14016;DHT22;7083;48.854;9.158;2024-01-30T03:03:05;-0.80;99.90
14016;DHT22;7083;48.854;9.158;2024-01-30T03:05:31;-0.80;99.90
14016;DHT22;7083;48.854;9.158;2024-01-30T03:07:58;-0.80;99.90
14016;DHT22;7083;48.854;9.158;2024-01-30T03:10:25;-0.90;99.90
14016;DHT22;7083;48.854;9.158;2024-01-30T03:12:53;-0.90;99.90
14016;DHT22;7083;48.854;9.158;2024-01-30T03:15:20;-0.90;99.90
14016;DHT22;7083;48.854;9.158;2024-01-30T03:17:46;-0.90;99.90
14016;DHT22;7083;48.854;9.158;2024-01-30T03:20:13;-0.90;99.90
14016;DHT22;7083;48.854;9.158;2024-01-30T03:22:40;-0.90;99.90
14016;DHT22;7083;48.854;9.158;2024-01-30T03:25:07;-0.90;99.90
14016;DHT22;7083;48.854;9.158;2024-01-30T03:27:34;-0.90;99.90
14016;DHT22;7083;48.854;9.158;2024-01-30T03:30:02;-1.00;99.90
14016;DHT22;7083;48.854;9.158;2024-01-30T03:32:29;-1.00;99.90
14016;DHT22;7083;48.854;9.158;2024-01-30T03:34:55;-1.00;99.90
14016;DHT22;7083;48.854;9.158;2024-01-30T03:37:23;-1.00;99.90
14016;DHT22;7083;48.854;9.158;2024-01-30T03:39:50;-1.00;99.90
14016;DHT22;7083;48.854;9.158;2024-01-30T03:42:17;-1.00;99.90
14016;DHT22;7083;48.854;9.158;2024-01-30T03:44:43;-1.00;99.90
14016;DHT22;7083;48.854;9.158;2024-01-30T03:47:11;-1.10;99.90
14016;DHT22;7083;48.854;9.158;2024-01-30T03:49:38;-1.10;99.90
14016;DHT22;7083;48.854;9.158;2024-01-30T03:52:05;-1.10;99.90
14016;DHT22;7083;48.854;9.158;2024-01-30T03:54:31;-1.10;99.90
14016;DHT22;7083;48.854;9.158;2024-01-30T03:56:58;-1.10;99.90
14016;DHT22;7083;48.854;9.158;2024-01-30T03:59:25;-1.10;99.90
14016;DHT22;7083;48.854;9.158;2024-01-30T04:01:51;-1.20;99.90
14016;DHT22;7083;48.854;9.158;2024-01-30T04:04:19;-1.20;99.90
14016;DHT22;7083;48.854;9.158;2024-01-30T04:06:46;-1.20;99.90
14016;DHT22;7083;48.854;9.158;2024-01-30T04:09:13;-1.20;99.90
14016;DHT22;7083;48.854;9.158;2024-01-30T04:11:40;-1.20;99.90
14016;DHT22;7083;48.854;9.158;2024-01-30T04:14:07;-1.20;99.90
14016;DHT22;7083;48.854;9.158;2024-01-30T04:16:34;-1.20;99.90
14016;DHT22;7083;48.854;9.158;2024-01-30T04:19:01;-1.20;99.90
14016;DHT22;7083;48.854;9.158;2024-01-30T04:21:29;-1.20;99.90
14016;DHT22;7083;48.854;9.158;2024-01-30T04:23:56;-1.30;99.90
14016;DHT22;7083;48.854;9.158;2024-01-30T04:26:23;-1.30;99.90
14016;DHT22;7083;48.854;9.158;2024-01-30T04:28:49;-1.30;99.90
14016;DHT22;7083;48.854;9.158;2024-01-30T04:31:15;-1.30;99.90
14016;DHT22;7083;48.854;9.158;2024-01-30T04:33:42;-1.30;99.90
14016;DHT22;7083;48.854;9.158;2024-01-30T04:36:09;-1.30;99.90
14016;DHT22;7083;48.854;9.158;2024-01-30T04:38:38;-1.30;99.90
14016;DHT22;7083;48.854;9.158;2024-01-30T04:41:05;-1.30;99.90
14016;DHT22;7083;48.854;9.158;2024-01-30T04:43:31;-1.30;99.90
14016;DHT22;7083;48.854;9.158;2024-01-30T04:45:58;-1.30;99.90
14016;DHT22;7083;48.854;9.158;2024-01-30T04:48:25;-1.30;99.90
14016;DHT22;7083;48.854;9.158;2024-01-30T04:50:51;-1.30;99.90
14016;DHT22;7083;48.854;9.158;2024-01-30T04:53:18;-1.30;99.90
14016;DHT22;7083;48.854;9.158;2024-01-30T04:55:46;-1.30;99.90
14016;DHT22;7083;48.854;9.158;2024-01-30T04:58:13;-1.30;99.90
14016;DHT22;7083;48.854;9.158;2024-01-30T05:00:40;-1.30;99.90
14016;DHT22;7083;48.854;9.158;2024-01-30T05:03:06;-1.50;99.90
14016;DHT22;7083;48.854;9.158;2024-01-30T05:05:33;-1.30;99.90
14016;DHT22;7083;48.854;9.158;2024-01-30T05:08:00;-1.30;99.90
14016;DHT22;7083;48.854;9.158;2024-01-30T05:10:26;-1.30;99.90
14016;DHT22;7083;48.854;9.158;2024-01-30T05:12:55;-1.30;99.90
14016;DHT22;7083;48.854;9.158;2024-01-30T05:15:22;-1.30;99.90
14016;DHT22;7083;48.854;9.158;2024-01-30T05:17:48;-1.30;99.90
14016;DHT22;7083;48.854;9.158;2024-01-30T05:20:16;-1.30;99.90
14016;DHT22;7083;48.854;9.158;2024-01-30T05:22:43;-1.30;99.90
14016;DHT22;7083;48.854;9.158;2024-01-30T05:25:11;-1.30;99.90
14016;DHT22;7083;48.854;9.158;2024-01-30T05:27:38;-1.30;99.90
14016;DHT22;7083;48.854;9.158;2024-01-30T05:30:07;-1.30;99.90
14016;DHT22;7083;48.854;9.158;2024-01-30T05:32:34;-1.30;99.90
14016;DHT22;7083;48.854;9.158;2024-01-30T05:35:01;-1.30;99.90
14016;DHT22;7083;48.854;9.158;2024-01-30T05:37:28;-1.30;99.90
14016;DHT22;7083;48.854;9.158;2024-01-30T05:39:55;-1.30;99.90
14016;DHT22;7083;48.854;9.158;2024-01-30T05:42:21;-1.20;99.90
14016;DHT22;7083;48.854;9.158;2024-01-30T05:44:48;-1.30;99.90
14016;DHT22;7083;48.854;9.158;2024-01-30T05:47:16;-1.00;99.90
14016;DHT22;7083;48.854;9.158;2024-01-30T05:49:43;-1.20;99.90
14016;DHT22;7083;48.854;9.158;2024-01-30T05:52:09;-1.20;99.90
14016;DHT22;7083;48.854;9.158;2024-01-30T05:54:36;-1.20;99.90
14016;DHT22;7083;48.854;9.158;2024-01-30T05:57:03;-1.20;99.90
14016;DHT22;7083;48.854;9.158;2024-01-30T05:59:30;-1.20;99.90
14016;DHT22;7083;48.854;9.158;2024-01-30T06:01:56;-1.20;99.90
14016;DHT22;7083;48.854;9.158;2024-01-30T06:04:24;-1.20;99.90
14016;DHT22;7083;48.854;9.158;2024-01-30T06:06:51;-1.20;99.90
14016;DHT22;7083;48.854;9.158;2024-01-30T06:09:18;-1.20;99.90
14016;DHT22;7083;48.854;9.158;2024-01-30T06:11:45;-1.20;99.90
14016;DHT22;7083;48.854;9.158;2024-01-30T06:14:11;-1.20;99.90
14016;DHT22;7083;48.854;9.158;2024-01-30T06:16:38;-1.20;99.90
14016;DHT22;7083;48.854;9.158;2024-01-30T06:19:05;-1.10;99.90
14016;DHT22;7083;48.854;9.158;2024-01-30T06:21:33;-1.10;99.90
14016;DHT22;7083;48.854;9.158;2024-01-30T06:24:02;-1.10;99.90
14016;DHT22;7083;48.854;9.158;2024-01-30T06:26:29;-1.20;99.90
14016;DHT22;7083;48.854;9.158;2024-01-30T06:28:55;-1.20;99.90
14016;DHT22;7083;48.854;9.158;2024-01-30T06:31:22;-1.20;99.90
14016;DHT22;7083;48.854;9.158;2024-01-30T06:33:49;-1.20;99.90
14016;DHT22;7083;48.854;9.158;2024-01-30T06:36:16;-1.20;99.90
14016;DHT22;7083;48.854;9.158;2024-01-30T06:38:44;-1.10;99.90
14016;DHT22;7083;48.854;9.158;2024-01-30T06:41:10;-1.20;99.90
14016;DHT22;7083;48.854;9.158;2024-01-30T06:43:37;-1.20;99.90
14016;DHT22;7083;48.854;9.158;2024-01-30T06:46:04;-1.20;99.90
14016;DHT22;7083;48.854;9.158;2024-01-30T06:48:30;-1.20;99.90
14016;DHT22;7083;48.854;9.158;2024-01-30T06:50:57;-1.20;99.90
14016;DHT22;7083;48.854;9.158;2024-01-30T06:53:24;-1.20;99.90
14016;DHT22;7083;48.854;9.158;2024-01-30T06:55:53;-1.20;99.90
14016;DHT22;7083;48.854;9.158;2024-01-30T06:58:19;-1.10;99.90
14016;DHT22;7083;48.854;9.158;2024-01-30T07:00:46;-1.10;99.90
14016;DHT22;7083;48.854;9.158;2024-01-30T07:03:13;-1.10;99.90
14016;DHT22;7083;48.854;9.158;2024-01-30T07:05:39;-1.10;99.90
14016;DHT22;7083;48.854;9.158;2024-01-30T07:08:06;-1.10;99.90
14016;DHT22;7083;48.854;9.158;2024-01-30T07:10:33;-1.10;99.90
14016;DHT22;7083;48.854;9.158;2024-01-30T07:13:01;-1.00;99.90
14016;DHT22;7083;48.854;9.158;2024-01-30T07:15:29;-1.00;99.90
14016;DHT22;7083;48.854;9.158;2024-01-30T07:17:56;-1.00;99.90
14016;DHT22;7083;48.854;9.158;2024-01-30T07:20:23;-1.00;99.90
14016;DHT22;7083;48.854;9.158;2024-01-30T07:22:49;-0.90;99.90
14016;DHT22;7083;48.854;9.158;2024-01-30T07:25:16;-0.90;99.90
14016;DHT22;7083;48.854;9.158;2024-01-30T07:27:43;-0.90;99.90
14016;DHT22;7083;48.854;9.158;2024-01-30T07:30:12;-0.80;99.90
14016;DHT22;7083;48.854;9.158;2024-01-30T07:32:39;-0.80;99.90
14016;DHT22;7083;48.854;9.158;2024-01-30T07:35:06;-0.70;99.90
14016;DHT22;7083;48.854;9.158;2024-01-30T07:37:32;-0.70;99.90
14016;DHT22;7083;48.854;9.158;2024-01-30T07:47:22;-0.30;99.90
14016;DHT22;7083;48.854;9.158;2024-01-30T07:49:48;-0.40;99.90
14016;DHT22;7083;48.854;9.158;2024-01-30T07:52:15;-0.30;99.90
14016;DHT22;7083;48.854;9.158;2024-01-30T07:54:42;-0.20;99.90
14016;DHT22;7083;48.854;9.158;2024-01-30T07:57:08;-0.10;99.90
14016;DHT22;7083;48.854;9.158;2024-01-30T07:59:35;0.00;99.90
14016;DHT22;7083;48.854;9.158;2024-01-30T08:02:02;0.10;99.90
14016;DHT22;7083;48.854;9.158;2024-01-30T08:04:30;0.10;99.90
14016;DHT22;7083;48.854;9.158;2024-01-30T08:09:24;0.50;99.90
14016;DHT22;7083;48.854;9.158;2024-01-30T08:11:50;0.60;99.90
14016;DHT22;7083;48.854;9.158;2024-01-30T08:14:17;0.70;99.90
14016;DHT22;7083;48.854;9.158;2024-01-30T08:16:44;0.80;99.90
14016;DHT22;7083;48.854;9.158;2024-01-30T08:19:10;1.00;99.90
14016;DHT22;7083;48.854;9.158;2024-01-30T08:21:39;1.10;99.90
14016;DHT22;7083;48.854;9.158;2024-01-30T08:24:06;1.20;99.90
14016;DHT22;7083;48.854;9.158;2024-01-30T08:26:33;1.40;99.90
14016;DHT22;7083;48.854;9.158;2024-01-30T08:29:01;1.50;99.90
14016;DHT22;7083;48.854;9.158;2024-01-30T08:31:28;1.60;99.90
14016;DHT22;7083;48.854;9.158;2024-01-30T08:33:54;1.70;99.90
14016;DHT22;7083;48.854;9.158;2024-01-30T08:36:21;1.80;99.90
14016;DHT22;7083;48.854;9.158;2024-01-30T08:38:49;2.00;99.90
14016;DHT22;7083;48.854;9.158;2024-01-30T08:41:16;2.00;99.90
14016;DHT22;7083;48.854;9.158;2024-01-30T08:43:43;2.10;99.90
14016;DHT22;7083;48.854;9.158;2024-01-30T08:46:10;2.20;99.90
14016;DHT22;7083;48.854;9.158;2024-01-30T08:48:37;2.30;99.90
14016;DHT22;7083;48.854;9.158;2024-01-30T08:51:04;2.40;99.90
14016;DHT22;7083;48.854;9.158;2024-01-30T08:53:33;2.60;99.90
14016;DHT22;7083;48.854;9.158;2024-01-30T08:56:02;2.60;99.90
14016;DHT22;7083;48.854;9.158;2024-01-30T08:58:28;2.80;99.90
14016;DHT22;7083;48.854;9.158;2024-01-30T09:00:56;2.90;99.90
14016;DHT22;7083;48.854;9.158;2024-01-30T09:03:22;2.90;99.90
14016;DHT22;7083;48.854;9.158;2024-01-30T09:05:49;3.00;99.90
14016;DHT22;7083;48.854;9.158;2024-01-30T09:10:43;3.20;99.90
14016;DHT22;7083;48.854;9.158;2024-01-30T09:13:11;3.30;99.90
14016;DHT22;7083;48.854;9.158;2024-01-30T09:15:38;3.40;99.90
14016;DHT22;7083;48.854;9.158;2024-01-30T09:18:05;3.50;99.90
14016;DHT22;7083;48.854;9.158;2024-01-30T09:20:32;3.50;99.90
14016;DHT22;7083;48.854;9.158;2024-01-30T09:22:59;3.70;99.90
14016;DHT22;7083;48.854;9.158;2024-01-30T09:25:25;3.80;99.90
14016;DHT22;7083;48.854;9.158;2024-01-30T09:27:52;3.90;99.90
14016;DHT22;7083;48.854;9.158;2024-01-30T09:30:20;4.00;99.90
14016;DHT22;7083;48.854;9.158;2024-01-30T09:32:47;4.20;99.90
14016;DHT22;7083;48.854;9.158;2024-01-30T09:35:14;4.30;99.90
14016;DHT22;7083;48.854;9.158;2024-01-30T09:37:40;4.40;99.90
14016;DHT22;7083;48.854;9.158;2024-01-30T09:40:08;4.50;99.90
14016;DHT22;7083;48.854;9.158;2024-01-30T09:42:35;4.70;99.90
14016;DHT22;7083;48.854;9.158;2024-01-30T09:45:02;4.80;99.90
14016;DHT22;7083;48.854;9.158;2024-01-30T09:47:32;4.90;99.90
14016;DHT22;7083;48.854;9.158;2024-01-30T09:49:59;4.90;99.90
14016;DHT22;7083;48.854;9.158;2024-01-30T09:52:28;5.00;99.90
14016;DHT22;7083;48.854;9.158;2024-01-30T09:54:55;5.20;99.90
14016;DHT22;7083;48.854;9.158;2024-01-30T09:57:22;5.30;99.90
14016;DHT22;7083;48.854;9.158;2024-01-30T09:59:49;5.40;99.90
14016;DHT22;7083;48.854;9.158;2024-01-30T10:02:17;5.50;99.90
14016;DHT22;7083;48.854;9.158;2024-01-30T10:04:47;5.60;99.90
14016;DHT22;7083;48.854;9.158;2024-01-30T10:07:14;5.80;99.90
14016;DHT22;7083;48.854;9.158;2024-01-30T10:09:41;5.80;99.90
14016;DHT22;7083;48.854;9.158;2024-01-30T10:12:09;6.10;99.90
14016;DHT22;7083;48.854;9.158;2024-01-30T10:14:38;6.20;99.90
14016;DHT22;7083;48.854;9.158;2024-01-30T10:17:05;6.30;99.90
14016;DHT22;7083;48.854;9.158;2024-01-30T10:19:32;6.40;99.90
14016;DHT22;7083;48.854;9.158;2024-01-30T10:22:01;6.50;99.90
14016;DHT22;7083;48.854;9.158;2024-01-30T10:24:28;6.60;99.90
14016;DHT22;7083;48.854;9.158;2024-01-30T10:26:55;6.70;99.90
14016;DHT22;7083;48.854;9.158;2024-01-30T10:29:22;6.90;99.90
14016;DHT22;7083;48.854;9.158;2024-01-30T10:31:57;6.90;99.90
14016;DHT22;7083;48.854;9.158;2024-01-30T10:34:24;7.10;99.90
14016;DHT22;7083;48.854;9.158;2024-01-30T10:36:57;7.20;99.90
14016;DHT22;7083;48.854;9.158;2024-01-30T10:39:29;7.20;99.90
14016;DHT22;7083;48.854;9.158;2024-01-30T10:41:56;7.60;99.90
14016;DHT22;7083;48.854;9.158;2024-01-30T10:44:27;7.50;99.90
14016;DHT22;7083;48.854;9.158;2024-01-30T10:47:00;7.40;99.90
14016;DHT22;7083;48.854;9.158;2024-01-30T10:49:30;7.70;99.90
14016;DHT22;7083;48.854;9.158;2024-01-30T10:51:57;7.80;99.90
14016;DHT22;7083;48.854;9.158;2024-01-30T10:54:26;7.90;99.90
14016;DHT22;7083;48.854;9.158;2024-01-30T10:56:54;8.10;99.90
14016;DHT22;7083;48.854;9.158;2024-01-30T10:59:22;8.00;99.90
14016;DHT22;7083;48.854;9.158;2024-01-30T11:01:51;8.20;99.90
14016;DHT22;7083;48.854;9.158;2024-01-30T11:04:17;8.30;99.90
14016;DHT22;7083;48.854;9.158;2024-01-30T11:06:44;8.40;99.90
14016;DHT22;7083;48.854;9.158;2024-01-30T11:09:11;8.60;99.90
14016;DHT22;7083;48.854;9.158;2024-01-30T11:11:50;8.70;99.90
14016;DHT22;7083;48.854;9.158;2024-01-30T11:14:22;8.70;99.90
14016;DHT22;7083;48.854;9.158;2024-01-30T11:16:49;8.70;99.90
14016;DHT22;7083;48.854;9.158;2024-01-30T11:19:22;8.90;99.90
14016;DHT22;7083;48.854;9.158;2024-01-30T11:21:50;8.90;99.90
14016;DHT22;7083;48.854;9.158;2024-01-30T11:24:22;9.10;99.90
14016;DHT22;7083;48.854;9.158;2024-01-30T11:26:55;9.10;99.90
14016;DHT22;7083;48.854;9.158;2024-01-30T11:29:24;9.20;99.90
14016;DHT22;7083;48.854;9.158;2024-01-30T11:31:52;9.30;99.90
14016;DHT22;7083;48.854;9.158;2024-01-30T11:34:19;9.40;99.90
14016;DHT22;7083;48.854;9.158;2024-01-30T11:36:51;9.40;99.90
14016;DHT22;7083;48.854;9.158;2024-01-30T11:39:20;9.50;99.90
14016;DHT22;7083;48.854;9.158;2024-01-30T11:41:49;9.60;99.90
14016;DHT22;7083;48.854;9.158;2024-01-30T11:44:17;9.40;99.90
14016;DHT22;7083;48.854;9.158;2024-01-30T11:46:45;9.80;99.90
14016;DHT22;7083;48.854;9.158;2024-01-30T11:49:12;9.80;99.90
14016;DHT22;7083;48.854;9.158;2024-01-30T11:51:39;9.90;99.90
14016;DHT22;7083;48.854;9.158;2024-01-30T11:54:07;10.00;99.90
14016;DHT22;7083;48.854;9.158;2024-01-30T11:56:34;10.10;99.90
14016;DHT22;7083;48.854;9.158;2024-01-30T11:59:02;10.10;99.90
14016;DHT22;7083;48.854;9.158;2024-01-30T12:01:29;10.20;99.90
14016;DHT22;7083;48.854;9.158;2024-01-30T12:03:55;10.20;99.90
14016;DHT22;7083;48.854;9.158;2024-01-30T12:06:23;10.10;99.90
14016;DHT22;7083;48.854;9.158;2024-01-30T12:08:59;10.20;99.90
14016;DHT22;7083;48.854;9.158;2024-01-30T12:11:27;10.30;99.90
14016;DHT22;7083;48.854;9.158;2024-01-30T12:13:55;10.40;99.90
14016;DHT22;7083;48.854;9.158;2024-01-30T12:16:24;10.40;99.90
14016;DHT22;7083;48.854;9.158;2024-01-30T12:18:59;10.40;99.90
14016;DHT22;7083;48.854;9.158;2024-01-30T12:21:26;10.50;99.90
14016;DHT22;7083;48.854;9.158;2024-01-30T12:23:52;10.50;99.90
14016;DHT22;7083;48.854;9.158;2024-01-30T12:26:19;10.70;99.90
14016;DHT22;7083;48.854;9.158;2024-01-30T12:28:49;10.70;99.90
14016;DHT22;7083;48.854;9.158;2024-01-30T12:31:16;10.70;99.90
14016;DHT22;7083;48.854;9.158;2024-01-30T12:33:44;10.90;99.90
14016;DHT22;7083;48.854;9.158;2024-01-30T12:36:11;11.00;99.90
14016;DHT22;7083;48.854;9.158;2024-01-30T12:38:38;11.00;99.90
14016;DHT22;7083;48.854;9.158;2024-01-30T12:41:07;11.00;99.90
14016;DHT22;7083;48.854;9.158;2024-01-30T12:43:35;11.10;99.90
14016;DHT22;7083;48.854;9.158;2024-01-30T12:46:03;11.20;99.90
14016;DHT22;7083;48.854;9.158;2024-01-30T12:48:29;11.20;99.90
14016;DHT22;7083;48.854;9.158;2024-01-30T12:50:57;11.30;99.90
14016;DHT22;7083;48.854;9.158;2024-01-30T12:53:24;11.40;99.90
14016;DHT22;7083;48.854;9.158;2024-01-30T12:55:51;11.50;99.90
14016;DHT22;7083;48.854;9.158;2024-01-30T12:58:19;11.60;99.90
14016;DHT22;7083;48.854;9.158;2024-01-30T13:00:46;11.80;99.90
14016;DHT22;7083;48.854;9.158;2024-01-30T13:03:13;11.80;99.90
14016;DHT22;7083;48.854;9.158;2024-01-30T13:05:39;11.80;99.90
14016;DHT22;7083;48.854;9.158;2024-01-30T13:08:07;12.00;99.90
14016;DHT22;7083;48.854;9.158;2024-01-30T13:10:34;12.00;99.90
14016;DHT22;7083;48.854;9.158;2024-01-30T13:13:01;12.00;99.90
14016;DHT22;7083;48.854;9.158;2024-01-30T13:15:28;12.10;99.90
14016;DHT22;7083;48.854;9.158;2024-01-30T13:17:54;12.10;99.90
14016;DHT22;7083;48.854;9.158;2024-01-30T13:20:21;12.40;99.90
14016;DHT22;7083;48.854;9.158;2024-01-30T13:22:48;12.40;99.90
14016;DHT22;7083;48.854;9.158;2024-01-30T13:25:17;12.50;99.90
14016;DHT22;7083;48.854;9.158;2024-01-30T13:27:44;12.50;99.90
14016;DHT22;7083;48.854;9.158;2024-01-30T13:30:11;12.60;99.90
14016;DHT22;7083;48.854;9.158;2024-01-30T13:32:38;12.60;99.90
14016;DHT22;7083;48.854;9.158;2024-01-30T13:35:07;12.50;99.90
14016;DHT22;7083;48.854;9.158;2024-01-30T13:37:34;12.40;99.90
14016;DHT22;7083;48.854;9.158;2024-01-30T13:40:01;12.50;99.90
14016;DHT22;7083;48.854;9.158;2024-01-30T13:42:29;12.50;99.90
14016;DHT22;7083;48.854;9.158;2024-01-30T13:44:56;12.40;99.90
14016;DHT22;7083;48.854;9.158;2024-01-30T13:47:22;12.60;99.90
14016;DHT22;7083;48.854;9.158;2024-01-30T13:49:49;12.70;99.90
14016;DHT22;7083;48.854;9.158;2024-01-30T13:52:18;12.80;99.90
14016;DHT22;7083;48.854;9.158;2024-01-30T13:54:44;12.90;99.90
14016;DHT22;7083;48.854;9.158;2024-01-30T13:57:11;13.20;99.90
14016;DHT22;7083;48.854;9.158;2024-01-30T13:59:39;12.90;99.90
14016;DHT22;7083;48.854;9.158;2024-01-30T14:02:06;12.80;99.90
14016;DHT22;7083;48.854;9.158;2024-01-30T14:04:35;12.70;99.90
14016;DHT22;7083;48.854;9.158;2024-01-30T14:07:02;12.60;99.90
14016;DHT22;7083;48.854;9.158;2024-01-30T14:09:29;12.40;99.90
14016;DHT22;7083;48.854;9.158;2024-01-30T14:11:57;12.40;99.90
14016;DHT22;7083;48.854;9.158;2024-01-30T14:14:24;12.40;99.90
14016;DHT22;7083;48.854;9.158;2024-01-30T14:16:52;12.30;99.90
14016;DHT22;7083;48.854;9.158;2024-01-30T14:19:19;12.20;99.90
14016;DHT22;7083;48.854;9.158;2024-01-30T14:21:46;12.20;99.90
14016;DHT22;7083;48.854;9.158;2024-01-30T14:24:12;12.20;99.90
14016;DHT22;7083;48.854;9.158;2024-01-30T14:26:39;12.10;99.90
14016;DHT22;7083;48.854;9.158;2024-01-30T14:29:06;12.00;99.90
14016;DHT22;7083;48.854;9.158;2024-01-30T14:31:32;12.00;92.50
14016;DHT22;7083;48.854;9.158;2024-01-30T14:34:00;11.90;92.90
14016;DHT22;7083;48.854;9.158;2024-01-30T14:36:28;11.70;92.50
14016;DHT22;7083;48.854;9.158;2024-01-30T14:38:55;11.60;92.60
14016;DHT22;7083;48.854;9.158;2024-01-30T14:41:22;11.60;93.50
14016;DHT22;7083;48.854;9.158;2024-01-30T14:43:48;11.40;92.70
14016;DHT22;7083;48.854;9.158;2024-01-30T14:46:15;11.30;92.50
14016;DHT22;7083;48.854;9.158;2024-01-30T14:48:42;11.20;93.30
14016;DHT22;7083;48.854;9.158;2024-01-30T14:51:11;11.20;93.50
14016;DHT22;7083;48.854;9.158;2024-01-30T14:53:37;11.10;93.90
14016;DHT22;7083;48.854;9.158;2024-01-30T14:56:05;11.00;93.90
14016;DHT22;7083;48.854;9.158;2024-01-30T14:58:32;11.00;94.20
14016;DHT22;7083;48.854;9.158;2024-01-30T15:00:58;11.00;94.90
14016;DHT22;7083;48.854;9.158;2024-01-30T15:03:27;10.90;95.20
14016;DHT22;7083;48.854;9.158;2024-01-30T15:05:53;10.80;95.10
14016;DHT22;7083;48.854;9.158;2024-01-30T15:08:23;10.80;95.00
14016;DHT22;7083;48.854;9.158;2024-01-30T15:10:50;10.70;95.00
14016;DHT22;7083;48.854;9.158;2024-01-30T15:13:17;10.60;95.10
14016;DHT22;7083;48.854;9.158;2024-01-30T15:15:44;10.50;95.30
14016;DHT22;7083;48.854;9.158;2024-01-30T15:18:10;10.40;95.50
14016;DHT22;7083;48.854;9.158;2024-01-30T15:20:37;10.30;95.50
14016;DHT22;7083;48.854;9.158;2024-01-30T15:23:04;10.20;95.60
14016;DHT22;7083;48.854;9.158;2024-01-30T15:25:32;10.10;95.70
14016;DHT22;7083;48.854;9.158;2024-01-30T15:27:58;10.00;95.80
14016;DHT22;7083;48.854;9.158;2024-01-30T15:30:25;9.90;96.50
14016;DHT22;7083;48.854;9.158;2024-01-30T15:32:52;9.70;96.70
14016;DHT22;7083;48.854;9.158;2024-01-30T15:35:19;9.60;96.90
14016;DHT22;7083;48.854;9.158;2024-01-30T15:37:46;9.50;97.20
14016;DHT22;7083;48.854;9.158;2024-01-30T15:40:13;9.40;97.50
14016;DHT22;7083;48.854;9.158;2024-01-30T15:42:41;9.30;97.90
14016;DHT22;7083;48.854;9.158;2024-01-30T15:45:08;9.20;98.30
14016;DHT22;7083;48.854;9.158;2024-01-30T15:47:35;9.00;98.60
14016;DHT22;7083;48.854;9.158;2024-01-30T15:50:02;8.90;98.90
14016;DHT22;7083;48.854;9.158;2024-01-30T15:52:29;8.80;99.40
14016;DHT22;7083;48.854;9.158;2024-01-30T15:54:55;8.70;99.90
14016;DHT22;7083;48.854;9.158;2024-01-30T15:57:22;8.50;99.90
14016;DHT22;7083;48.854;9.158;2024-01-30T15:59:50;8.40;99.90
14016;DHT22;7083;48.854;9.158;2024-01-30T16:02:17;8.30;99.90
14016;DHT22;7083;48.854;9.158;2024-01-30T16:04:45;7.90;99.90